Vijayawada Airport
VOBZ : now visible

Airfield :











YOU CAN JOIN US ON...

 
LOGIN :

Register | Disclaimer

   EN    FR    IT 

 









Legend :    VFR   Marginal VFR   IFR   Intensive IFR   Very Intensive IFR
Visi :
Ceiling :
>= 8 km
>= 3000ft
5 to 8 km
1000 to 3000 ft
1500m to 5 km
500 to 1000 ft
800 to 1500m
200 to 500 ft
< 800m
< 200 ft
Symbols :   Thunderstorms  Fog  Heavy snow  Heavy precipitations  Wind > 20 kt






- Airport Elevation : 82 ft
- IATA code : VGA


VOBZ - Vijayawada

CURRENT METAR :
  • 271500Z 23006KT 6000 FEW020 SCT100 33/24 Q0998 NOSIG

EXPIRED METARs :
  • 271430Z 21006KT 6000 FEW020 SCT100 34/25 Q0998 NOSIG
  • 271400Z 22006KT 6000 FEW020 SCT100 35/25 Q0997 NOSIG
  • 271330Z 23006KT 6000 FEW020 SCT100 35/26 Q0997 NOSIG
  • 271300Z 24006KT 6000 FEW020 SCT100 36/25 Q0997 NOSIG
  • 271230Z 24006KT 6000 FEW020 SCT100 36/25 Q0996 NOSIG
  • 271200Z 25006KT 6000 FEW020 SCT100 36/25 Q0996 NOSIG
  • 271130Z 25008KT 6000 SCT020 SCT100 37/26 Q0996 NOSIG
  • 271100Z 26012KT 6000 SCT020 SCT100 37/26 Q0996 NOSIG

TAF TAF VOBZ
Valid from the 27 at 15:00 until the 28 at 00:00 UTC


271400Z 2715/2724 23010KT 6000 SCT015 BKN080
TEMPO 2716/2720 FEW030CB
BECMG 2722/2724 29006KT 5000 HZ SCT015 SCT100
VOMF FIR / Asia



MET'MAP, your aeronautical weather chart ! - Copyright ORBIFLY December 2007 - Disclaimer

ORBIFLY MET'MAP TEAM :

Programming & Development : Alexandra Zaïnal
Original concept : Baudouin d'Aumeries
Technical & hardware support : Manuel Goepfert
Assistance : Marc-Olivier Méhu




SOURCES & CREDITS :

   NOAA       Earth
Advisory